createdAt,value
2023-03-01T00:00:11.334Z,0.00
2023-03-01T00:01:12.250Z,0.00
2023-03-01T00:02:13.202Z,0.00
2023-03-01T00:03:14.078Z,0.00
2023-03-01T00:04:14.945Z,0.00
2023-03-01T00:05:15.851Z,0.00
2023-03-01T00:06:16.762Z,0.00
2023-03-01T00:07:17.652Z,0.00
2023-03-01T00:08:18.554Z,0.00
2023-03-01T00:09:19.507Z,0.00
2023-03-01T00:10:20.358Z,0.00
2023-03-01T00:11:21.362Z,0.00
2023-03-01T00:12:22.217Z,0.00
2023-03-01T00:13:23.103Z,0.00
2023-03-01T00:14:23.983Z,0.00
2023-03-01T00:15:24.872Z,0.00
2023-03-01T00:16:25.887Z,0.00
2023-03-01T00:17:26.253Z,0.00
2023-03-01T00:18:27.140Z,0.00
2023-03-01T00:19:28.028Z,0.00
2023-03-01T00:20:28.910Z,0.00
2023-03-01T00:21:29.806Z,0.00
2023-03-01T00:22:30.685Z,0.00
2023-03-01T00:23:31.574Z,0.00
2023-03-01T00:24:32.488Z,0.00
2023-03-01T00:25:33.333Z,0.00
2023-03-01T00:26:34.233Z,0.00
2023-03-01T00:27:35.111Z,0.00
2023-03-01T00:28:35.997Z,0.00
2023-03-01T00:29:36.884Z,0.00
2023-03-01T00:30:37.822Z,0.00
2023-03-01T00:31:38.356Z,0.00
2023-03-01T00:32:39.235Z,0.00
2023-03-01T00:33:40.135Z,0.00
2023-03-01T00:34:41.008Z,0.00
2023-03-01T00:35:41.926Z,0.00
2023-03-01T00:36:42.794Z,0.00
2023-03-01T00:37:43.669Z,0.00
2023-03-01T00:38:44.563Z,0.00
2023-03-01T00:39:45.458Z,0.00
2023-03-01T00:40:46.323Z,0.00
2023-03-01T00:41:47.219Z,0.00
2023-03-01T00:42:48.106Z,0.00
2023-03-01T00:43:48.990Z,0.00
2023-03-01T00:44:49.876Z,0.00
2023-03-01T00:45:50.781Z,0.00
2023-03-01T00:46:51.667Z,0.00
2023-03-01T00:47:52.552Z,0.00
2023-03-01T00:48:53.437Z,0.00
2023-03-01T00:49:54.320Z,0.00
2023-03-01T00:50:55.205Z,0.00
2023-03-01T00:51:56.088Z,0.00
2023-03-01T00:52:56.997Z,0.00
2023-03-01T00:53:57.890Z,0.00
2023-03-01T00:54:58.776Z,0.00
2023-03-01T00:55:59.615Z,0.00
2023-03-01T00:57:00.512Z,0.00
2023-03-01T00:58:01.390Z,0.00
2023-03-01T00:59:02.287Z,0.00
2023-03-01T01:00:03.161Z,0.00
2023-03-01T01:01:04.149Z,0.00
2023-03-01T01:02:05.013Z,0.00
2023-03-01T01:03:05.898Z,0.00
2023-03-01T01:04:06.830Z,0.00
2023-03-01T01:05:07.701Z,0.00
2023-03-01T01:06:08.579Z,0.00
2023-03-01T01:07:09.477Z,0.00
2023-03-01T01:08:10.374Z,0.00
2023-03-01T01:09:11.237Z,0.00
2023-03-01T01:10:12.140Z,0.00
2023-03-01T01:11:13.004Z,0.00
2023-03-01T01:12:13.900Z,0.00
2023-03-01T01:13:14.782Z,0.00
2023-03-01T01:14:15.657Z,0.00
2023-03-01T01:15:16.537Z,0.00
2023-03-01T01:16:17.429Z,0.00
2023-03-01T01:17:18.314Z,0.00
2023-03-01T01:18:19.194Z,0.00
2023-03-01T01:19:20.074Z,0.00
2023-03-01T01:20:21.067Z,0.00
2023-03-01T01:21:21.955Z,0.00
2023-03-01T01:22:22.842Z,0.00
2023-03-01T01:23:23.725Z,0.00
2023-03-01T01:24:24.605Z,0.00
2023-03-01T01:25:25.512Z,0.00
2023-03-01T01:26:26.374Z,0.00
2023-03-01T01:27:27.275Z,0.00
2023-03-01T01:28:28.151Z,0.00
2023-03-01T01:29:29.033Z,0.00
2023-03-01T01:30:29.917Z,0.00
2023-03-01T01:31:30.896Z,0.00
2023-03-01T01:32:31.805Z,0.00
2023-03-01T01:33:32.651Z,0.00
2023-03-01T01:34:33.545Z,0.00
2023-03-01T01:35:34.445Z,0.00
2023-03-01T01:36:35.299Z,0.00
2023-03-01T01:37:36.188Z,0.00
2023-03-01T01:38:37.076Z,0.00
2023-03-01T01:39:37.962Z,0.00
2023-03-01T01:40:38.866Z,0.00
2023-03-01T01:41:39.727Z,0.00
2023-03-01T01:42:40.607Z,0.00
2023-03-01T01:43:41.491Z,0.00
2023-03-01T01:44:42.368Z,0.00
2023-03-01T01:45:43.249Z,0.00
2023-03-01T01:46:44.210Z,0.00
2023-03-01T01:47:45.117Z,0.00
2023-03-01T01:48:45.990Z,0.00
2023-03-01T01:49:46.874Z,0.00
2023-03-01T01:50:47.768Z,0.00
2023-03-01T01:51:48.638Z,0.00
2023-03-01T01:52:49.534Z,0.00
2023-03-01T01:53:50.433Z,0.00
2023-03-01T01:54:51.301Z,0.00
2023-03-01T01:55:52.209Z,0.00
2023-03-01T01:56:53.060Z,0.00
2023-03-01T01:57:53.952Z,0.00
2023-03-01T01:58:54.838Z,0.00
2023-03-01T01:59:55.741Z,0.00
2023-03-01T02:00:56.616Z,0.00
2023-03-01T02:01:57.509Z,0.00
2023-03-01T02:02:58.508Z,0.00
2023-03-01T02:03:58.893Z,0.00
2023-03-01T02:04:59.776Z,0.00
2023-03-01T02:06:00.663Z,0.00
2023-03-01T02:07:01.534Z,0.00
2023-03-01T02:08:02.431Z,0.00
2023-03-01T02:09:03.309Z,0.00
2023-03-01T02:10:04.193Z,0.00
2023-03-01T02:11:05.099Z,0.00
2023-03-01T02:12:05.971Z,0.00
2023-03-01T02:13:06.864Z,0.00
2023-03-01T02:14:07.737Z,0.00
2023-03-01T02:15:08.624Z,0.00
2023-03-01T02:16:09.556Z,0.00
2023-03-01T02:17:10.383Z,0.00
2023-03-01T02:18:11.277Z,0.00
2023-03-01T02:19:12.153Z,0.00
2023-03-01T02:20:13.036Z,0.00
2023-03-01T02:21:13.935Z,0.00
2023-03-01T02:22:14.860Z,0.00
2023-03-01T02:23:15.726Z,0.00
2023-03-01T02:24:17.754Z,0.00
2023-03-01T02:25:17.504Z,0.00
2023-03-01T02:26:18.415Z,0.00
2023-03-01T02:27:19.270Z,0.00
2023-03-01T02:28:20.162Z,0.00
2023-03-01T02:29:21.056Z,0.00
2023-03-01T02:30:21.941Z,0.00
2023-03-01T02:31:22.886Z,0.00
2023-03-01T02:32:23.788Z,0.00
2023-03-01T02:33:24.632Z,0.00
2023-03-01T02:34:25.518Z,0.00
2023-03-01T02:35:26.443Z,0.00
2023-03-01T02:36:27.282Z,0.00
2023-03-01T02:37:28.268Z,0.00
2023-03-01T02:38:29.164Z,0.00
2023-03-01T02:39:30.045Z,0.00
2023-03-01T02:40:30.930Z,0.00
2023-03-01T02:41:31.839Z,0.00
2023-03-01T02:42:32.708Z,0.00
2023-03-01T02:43:33.588Z,0.00
2023-03-01T02:44:34.484Z,0.00
2023-03-01T02:45:35.368Z,0.00
2023-03-01T02:46:36.258Z,0.00
2023-03-01T02:47:37.113Z,0.00
2023-03-01T02:48:38.009Z,0.00
2023-03-01T02:49:38.912Z,0.00
2023-03-01T02:50:39.773Z,0.00
2023-03-01T02:51:40.658Z,0.00
2023-03-01T02:52:42.172Z,0.00
2023-03-01T02:53:42.054Z,0.00
2023-03-01T02:54:42.935Z,0.00
2023-03-01T02:55:43.825Z,0.00
2023-03-01T02:56:44.727Z,0.00
2023-03-01T02:57:45.579Z,0.00
2023-03-01T02:58:46.485Z,0.00
2023-03-01T02:59:47.343Z,0.00
2023-03-01T03:00:48.310Z,0.00
2023-03-01T03:01:49.163Z,0.00
2023-03-01T03:02:50.117Z,0.00
2023-03-01T03:03:50.817Z,0.00
2023-03-01T03:04:51.708Z,0.00
2023-03-01T03:05:52.593Z,0.00
2023-03-01T03:06:53.484Z,0.00
2023-03-01T03:07:54.354Z,0.00
2023-03-01T03:08:55.245Z,0.00
2023-03-01T03:09:56.129Z,0.00
2023-03-01T03:10:57.011Z,0.00
2023-03-01T03:11:57.984Z,0.00
2023-03-01T03:12:58.850Z,0.00
2023-03-01T03:13:59.741Z,0.00
2023-03-01T03:15:00.634Z,0.00
2023-03-01T03:16:01.528Z,0.00
2023-03-01T03:17:02.388Z,0.00
2023-03-01T03:18:03.258Z,0.00
2023-03-01T03:19:04.146Z,0.00
2023-03-01T03:20:05.045Z,0.00
2023-03-01T03:21:05.915Z,0.00
2023-03-01T03:22:06.801Z,0.00
2023-03-01T03:23:07.684Z,0.00
2023-03-01T03:24:08.567Z,0.00
2023-03-01T03:25:09.455Z,0.00
2023-03-01T03:26:10.329Z,0.00
2023-03-01T03:27:11.249Z,0.00
2023-03-01T03:28:12.127Z,0.00
2023-03-01T03:29:13.000Z,0.00
2023-03-01T03:30:13.881Z,0.00
2023-03-01T03:31:14.805Z,0.00
2023-03-01T03:32:15.713Z,0.00
2023-03-01T03:33:16.595Z,0.00
2023-03-01T03:34:17.487Z,0.00
2023-03-01T03:35:18.373Z,0.00
2023-03-01T03:36:19.256Z,0.00
2023-03-01T03:37:20.142Z,0.00
2023-03-01T03:38:21.024Z,0.00
2023-03-01T03:39:21.919Z,0.00
2023-03-01T03:40:22.803Z,0.00
2023-03-01T03:41:23.688Z,0.00
2023-03-01T03:42:24.578Z,0.00
2023-03-01T03:43:25.442Z,0.00
2023-03-01T03:44:26.335Z,0.00
2023-03-01T03:45:27.273Z,0.00
2023-03-01T03:46:28.134Z,0.00
2023-03-01T03:47:29.001Z,0.00
2023-03-01T03:48:29.881Z,0.00
2023-03-01T03:49:30.775Z,0.00
2023-03-01T03:50:31.658Z,0.00
2023-03-01T03:51:32.542Z,0.00
2023-03-01T03:52:33.424Z,0.00
2023-03-01T03:53:34.300Z,0.00
2023-03-01T03:54:35.192Z,0.00
2023-03-01T03:55:36.077Z,0.00
2023-03-01T03:56:38.339Z,0.00
2023-03-01T03:57:37.625Z,0.00
2023-03-01T03:58:38.500Z,0.00
2023-03-01T03:59:39.386Z,0.00
2023-03-01T04:00:40.261Z,0.00
2023-03-01T04:01:41.237Z,0.00
2023-03-01T04:02:42.167Z,0.00
2023-03-01T04:03:43.024Z,0.00
2023-03-01T04:04:43.928Z,0.00
2023-03-01T04:05:44.833Z,0.00
2023-03-01T04:06:45.732Z,0.00
2023-03-01T04:07:46.647Z,0.00
2023-03-01T04:08:47.512Z,0.00
2023-03-01T04:09:48.431Z,0.00
2023-03-01T04:10:49.291Z,0.00
2023-03-01T04:11:50.174Z,0.00
2023-03-01T04:12:51.077Z,0.00
2023-03-01T04:13:51.946Z,0.00
2023-03-01T04:14:52.850Z,0.00
2023-03-01T04:15:53.715Z,0.00
2023-03-01T04:16:54.666Z,0.00
2023-03-01T04:17:55.516Z,0.00
2023-03-01T04:18:56.401Z,0.00
2023-03-01T04:19:57.308Z,0.00
2023-03-01T04:20:58.175Z,0.00
2023-03-01T04:21:59.045Z,0.00
2023-03-01T04:22:59.930Z,0.00
2023-03-01T04:24:00.828Z,0.00
2023-03-01T04:25:01.707Z,0.00
2023-03-01T04:26:02.597Z,0.00
2023-03-01T04:27:03.472Z,0.00
2023-03-01T04:28:04.370Z,0.00
2023-03-01T04:29:05.244Z,0.00
2023-03-01T04:30:06.126Z,0.00
2023-03-01T04:31:08.719Z,0.00
2023-03-01T04:32:07.750Z,0.00
2023-03-01T04:33:08.590Z,0.00
2023-03-01T04:34:09.477Z,0.00
2023-03-01T04:35:10.368Z,0.00
2023-03-01T04:36:11.328Z,0.00
2023-03-01T04:37:12.165Z,0.00
2023-03-01T04:38:13.051Z,0.00
2023-03-01T04:39:13.942Z,0.00
2023-03-01T04:40:14.849Z,0.00
2023-03-01T04:41:15.732Z,0.00
2023-03-01T04:42:16.619Z,0.00
2023-03-01T04:43:17.572Z,0.00
2023-03-01T04:44:18.412Z,0.00
2023-03-01T04:45:19.327Z,0.00
2023-03-01T04:46:20.285Z,0.00
2023-03-01T04:47:21.167Z,0.00
2023-03-01T04:48:22.041Z,0.00
2023-03-01T04:49:22.939Z,0.00
2023-03-01T04:50:23.841Z,0.00
2023-03-01T04:51:24.745Z,0.00
2023-03-01T04:52:25.653Z,0.00
2023-03-01T04:53:26.558Z,0.00
2023-03-01T04:54:27.451Z,0.00
2023-03-01T04:55:28.374Z,0.00
2023-03-01T04:56:29.523Z,0.00
2023-03-01T04:57:30.042Z,0.00
2023-03-01T04:58:30.946Z,0.00
2023-03-01T04:59:31.814Z,0.00
2023-03-01T05:00:32.694Z,0.00
2023-03-01T05:01:33.578Z,0.00
2023-03-01T05:02:34.517Z,0.00
2023-03-01T05:03:35.344Z,0.00
2023-03-01T05:04:36.265Z,0.00
2023-03-01T05:05:37.234Z,0.00
2023-03-01T05:06:38.106Z,0.00
2023-03-01T05:07:38.988Z,0.00
2023-03-01T05:08:39.863Z,0.00
2023-03-01T05:09:40.745Z,0.00
2023-03-01T05:10:41.645Z,0.00
2023-03-01T05:11:42.527Z,0.00
2023-03-01T05:12:43.409Z,0.00
2023-03-01T05:13:44.330Z,0.00
2023-03-01T05:14:45.163Z,0.00
2023-03-01T05:15:46.086Z,0.00
2023-03-01T05:16:46.935Z,0.00
2023-03-01T05:17:47.823Z,0.00
2023-03-01T05:18:48.695Z,0.00
2023-03-01T05:19:49.577Z,0.00
2023-03-01T05:20:50.471Z,0.00
2023-03-01T05:21:51.399Z,0.00
2023-03-01T05:22:52.289Z,0.00
2023-03-01T05:23:53.170Z,0.00
2023-03-01T05:24:54.056Z,0.00
2023-03-01T05:25:54.967Z,0.00
2023-03-01T05:26:55.838Z,0.00
2023-03-01T05:27:56.717Z,0.00
2023-03-01T05:28:57.619Z,0.00
2023-03-01T05:29:58.475Z,0.00
2023-03-01T05:30:59.410Z,0.00
2023-03-01T05:32:00.353Z,0.00
2023-03-01T05:33:01.212Z,0.00
2023-03-01T05:34:02.090Z,0.00
2023-03-01T05:35:02.971Z,0.00
2023-03-01T05:36:03.856Z,0.00
2023-03-01T05:37:04.695Z,0.00
2023-03-01T05:38:05.598Z,0.00
2023-03-01T05:39:06.501Z,0.00
2023-03-01T05:40:07.409Z,0.00
2023-03-01T05:41:08.282Z,0.00
2023-03-01T05:42:09.109Z,0.00
2023-03-01T05:43:09.987Z,0.00
2023-03-01T05:44:10.894Z,0.00
2023-03-01T05:45:11.760Z,0.00
2023-03-01T05:46:12.652Z,0.00
2023-03-01T05:47:13.439Z,0.00
2023-03-01T05:48:14.269Z,0.00
2023-03-01T05:49:15.097Z,0.00
2023-03-01T05:50:15.929Z,0.00
2023-03-01T05:51:16.766Z,0.00
2023-03-01T05:52:17.596Z,0.00
2023-03-01T05:53:18.449Z,0.00
2023-03-01T05:54:19.269Z,0.00
2023-03-01T05:55:19.802Z,0.00
2023-03-01T05:56:20.632Z,0.00
2023-03-01T05:57:21.466Z,0.00
2023-03-01T05:58:22.291Z,0.00
2023-03-01T05:59:23.151Z,0.00
2023-03-01T06:00:23.962Z,0.00
2023-03-01T06:01:24.790Z,0.00
2023-03-01T06:02:25.620Z,0.00
2023-03-01T06:03:26.459Z,0.00
2023-03-01T06:04:27.363Z,0.00
2023-03-01T06:05:28.231Z,0.00
2023-03-01T06:06:29.373Z,0.00
2023-03-01T06:07:29.704Z,0.00
2023-03-01T06:08:30.552Z,0.00
2023-03-01T06:09:31.374Z,0.00
2023-03-01T06:10:32.212Z,0.00
2023-03-01T06:11:33.032Z,0.00
2023-03-01T06:12:33.873Z,0.00
2023-03-01T06:13:34.696Z,0.00
2023-03-01T06:14:35.539Z,0.00
2023-03-01T06:15:36.428Z,0.00
2023-03-01T06:16:37.222Z,0.00
2023-03-01T06:17:38.042Z,0.00
2023-03-01T06:18:38.883Z,0.00
2023-03-01T06:19:39.702Z,0.00
2023-03-01T06:20:40.541Z,0.00
2023-03-01T06:21:41.369Z,0.00
2023-03-01T06:22:42.201Z,0.00
2023-03-01T06:23:43.022Z,0.00
2023-03-01T06:24:43.851Z,0.00
2023-03-01T06:25:44.681Z,0.00
2023-03-01T06:26:45.510Z,0.00
2023-03-01T06:27:46.341Z,0.00
2023-03-01T06:28:47.282Z,0.00
2023-03-01T06:29:48.099Z,0.00
2023-03-01T06:30:48.917Z,0.00
2023-03-01T06:31:49.766Z,0.00
2023-03-01T06:32:50.592Z,0.00
2023-03-01T06:33:51.404Z,0.00
2023-03-01T06:34:52.235Z,0.00
2023-03-01T06:35:53.169Z,0.00
2023-03-01T06:36:54.006Z,5.62
2023-03-01T06:37:54.837Z,5.62
2023-03-01T06:38:55.669Z,5.62
2023-03-01T06:39:56.488Z,5.62
2023-03-01T06:40:57.337Z,5.62
2023-03-01T06:41:58.174Z,5.62
2023-03-01T06:42:59.000Z,5.62
2023-03-01T06:43:59.816Z,5.62
2023-03-01T06:45:00.666Z,5.62
2023-03-01T06:46:01.478Z,5.62
2023-03-01T06:47:02.315Z,5.62
2023-03-01T06:48:03.137Z,5.62
2023-03-01T06:49:03.971Z,5.62
2023-03-01T06:50:04.820Z,5.62
2023-03-01T06:51:05.669Z,5.62
2023-03-01T06:52:06.471Z,5.62
2023-03-01T06:53:07.298Z,5.62
2023-03-01T06:54:08.119Z,5.62
2023-03-01T06:55:08.945Z,5.62
2023-03-01T06:56:09.784Z,5.62
2023-03-01T06:57:10.622Z,5.62
2023-03-01T06:58:11.449Z,5.62
2023-03-01T06:59:12.276Z,5.62
2023-03-01T07:00:13.133Z,5.62
2023-03-01T07:01:13.953Z,5.62
2023-03-01T07:02:14.784Z,5.62
2023-03-01T07:03:15.614Z,5.62
2023-03-01T07:04:16.437Z,11.25
2023-03-01T07:05:17.266Z,11.25
2023-03-01T07:06:18.096Z,11.25
2023-03-01T07:07:18.934Z,11.25
2023-03-01T07:08:19.749Z,11.25
2023-03-01T07:09:20.579Z,11.25
2023-03-01T07:10:21.416Z,11.25
2023-03-01T07:11:22.245Z,11.25
2023-03-01T07:12:23.073Z,11.25
2023-03-01T07:13:23.903Z,11.25
2023-03-01T07:14:24.730Z,11.25
2023-03-01T07:15:25.572Z,11.25
2023-03-01T07:16:26.496Z,11.25
2023-03-01T07:17:27.271Z,11.25
2023-03-01T07:18:28.104Z,11.25
2023-03-01T07:19:28.933Z,11.25
2023-03-01T07:20:29.874Z,11.25
2023-03-01T07:21:30.712Z,11.25
2023-03-01T07:22:31.542Z,11.25
2023-03-01T07:23:32.373Z,11.25
2023-03-01T07:24:33.213Z,11.25
2023-03-01T07:25:34.031Z,11.25
2023-03-01T07:26:34.869Z,16.88
2023-03-01T07:27:35.699Z,16.88
2023-03-01T07:28:36.519Z,16.88
2023-03-01T07:29:37.351Z,16.88
2023-03-01T07:30:38.204Z,16.88
2023-03-01T07:31:39.018Z,16.88
2023-03-01T07:32:39.936Z,16.88
2023-03-01T07:33:40.723Z,16.88
2023-03-01T07:34:41.560Z,16.88
2023-03-01T07:35:42.461Z,16.88
2023-03-01T07:36:43.252Z,16.88
2023-03-01T07:37:44.083Z,16.88
2023-03-01T07:38:44.911Z,16.88
2023-03-01T07:39:45.745Z,22.50
2023-03-01T07:40:46.568Z,22.50
2023-03-01T07:41:47.400Z,22.50
2023-03-01T07:42:48.237Z,22.50
2023-03-01T07:43:49.084Z,22.50
2023-03-01T07:44:49.887Z,22.50
2023-03-01T07:45:50.740Z,22.50
2023-03-01T07:46:51.552Z,22.50
2023-03-01T07:47:52.382Z,22.50
2023-03-01T07:48:53.218Z,22.50
2023-03-01T07:49:54.033Z,22.50
2023-03-01T07:50:54.860Z,22.50
2023-03-01T07:51:55.692Z,22.50
2023-03-01T07:52:56.541Z,22.50
2023-03-01T07:53:57.381Z,22.50
2023-03-01T07:54:58.206Z,22.50
2023-03-01T07:55:59.034Z,28.12
2023-03-01T07:56:59.876Z,28.12
2023-03-01T07:58:00.734Z,28.12
2023-03-01T07:59:01.565Z,28.12
2023-03-01T08:00:02.388Z,28.12
2023-03-01T08:01:03.237Z,28.12
2023-03-01T08:02:04.106Z,28.12
2023-03-01T08:03:04.914Z,28.12
2023-03-01T08:04:05.742Z,33.75
2023-03-01T08:05:06.564Z,33.75
2023-03-01T08:06:07.384Z,33.75
2023-03-01T08:07:08.221Z,33.75
2023-03-01T08:08:09.051Z,33.75
2023-03-01T08:09:09.881Z,33.75
2023-03-01T08:10:10.701Z,33.75
2023-03-01T08:11:11.532Z,33.75
2023-03-01T08:12:12.396Z,33.75
2023-03-01T08:13:13.204Z,33.75
2023-03-01T08:14:14.032Z,39.38
2023-03-01T08:15:14.858Z,39.38
2023-03-01T08:16:15.782Z,39.38
2023-03-01T08:17:16.590Z,39.38
2023-03-01T08:18:17.411Z,39.38
2023-03-01T08:19:18.239Z,39.38
2023-03-01T08:20:20.061Z,39.38
2023-03-01T08:21:19.923Z,39.38
2023-03-01T08:22:20.752Z,39.38
2023-03-01T08:23:21.570Z,39.38
2023-03-01T08:24:22.481Z,39.38
2023-03-01T08:25:23.311Z,39.38
2023-03-01T08:26:24.135Z,45.00
2023-03-01T08:27:25.602Z,45.00
2023-03-01T08:28:25.482Z,45.00
2023-03-01T08:29:26.314Z,39.38
2023-03-01T08:30:27.128Z,45.00
2023-03-01T08:31:28.018Z,50.62
2023-03-01T08:32:28.839Z,73.12
2023-03-01T08:33:29.684Z,61.88
2023-03-01T08:34:30.477Z,50.62
2023-03-01T08:35:31.310Z,50.62
2023-03-01T08:36:32.601Z,56.25
2023-03-01T08:37:33.084Z,61.88
2023-03-01T08:38:33.913Z,61.88
2023-03-01T08:39:34.758Z,61.88
2023-03-01T08:40:35.577Z,67.50
2023-03-01T08:41:36.404Z,61.88
2023-03-01T08:42:37.250Z,56.25
2023-03-01T08:43:38.078Z,67.50
2023-03-01T08:44:38.899Z,67.50
2023-03-01T08:45:39.772Z,73.12
2023-03-01T08:46:40.590Z,67.50
2023-03-01T08:47:41.468Z,67.50
2023-03-01T08:48:42.246Z,61.88
2023-03-01T08:49:43.080Z,67.50
2023-03-01T08:50:43.897Z,61.88
2023-03-01T08:51:44.726Z,56.25
2023-03-01T08:52:45.568Z,56.25
2023-03-01T08:53:46.395Z,56.25
2023-03-01T08:54:47.235Z,56.25
2023-03-01T08:55:49.930Z,56.25
2023-03-01T08:56:48.959Z,56.25
2023-03-01T08:57:49.788Z,61.88
2023-03-01T08:58:50.609Z,61.88
2023-03-01T08:59:51.474Z,61.88
2023-03-01T09:00:52.259Z,67.50
2023-03-01T09:01:53.154Z,67.50
2023-03-01T09:02:53.927Z,67.50
2023-03-01T09:03:54.812Z,73.12
2023-03-01T09:04:55.590Z,73.12
2023-03-01T09:05:56.424Z,78.75
2023-03-01T09:06:57.250Z,78.75
2023-03-01T09:07:58.155Z,73.12
2023-03-01T09:08:58.982Z,67.50
2023-03-01T09:09:59.815Z,67.50
2023-03-01T09:11:00.636Z,67.50
2023-03-01T09:12:01.489Z,61.88
2023-03-01T09:13:02.629Z,61.88
2023-03-01T09:14:02.935Z,67.50
2023-03-01T09:15:03.765Z,67.50
2023-03-01T09:16:04.606Z,73.12
2023-03-01T09:17:05.477Z,67.50
2023-03-01T09:18:06.283Z,67.50
2023-03-01T09:19:07.115Z,73.12
2023-03-01T09:20:07.957Z,73.12
2023-03-01T09:21:08.777Z,78.75
2023-03-01T09:22:09.606Z,73.12
2023-03-01T09:23:10.465Z,73.12
2023-03-01T09:24:11.292Z,73.12
2023-03-01T09:25:12.134Z,67.50
2023-03-01T09:26:12.964Z,67.50
2023-03-01T09:27:13.796Z,73.12
2023-03-01T09:28:28.890Z,73.12
2023-03-01T09:29:16.360Z,78.75
2023-03-01T09:30:16.185Z,84.38
2023-03-01T09:31:17.144Z,90.00
2023-03-01T09:32:17.998Z,90.00
2023-03-01T09:33:19.983Z,106.88
2023-03-01T09:34:19.802Z,90.00
2023-03-01T09:35:20.610Z,90.00
2023-03-01T09:36:21.600Z,95.62
2023-03-01T09:37:22.375Z,90.00
2023-03-01T09:38:24.136Z,101.25
2023-03-01T09:39:24.067Z,112.50
2023-03-01T09:40:24.898Z,101.25
2023-03-01T09:41:25.732Z,78.75
2023-03-01T09:42:26.558Z,84.38
2023-03-01T09:43:27.441Z,95.62
2023-03-01T09:44:28.270Z,84.38
2023-03-01T09:45:29.081Z,90.00
2023-03-01T09:46:30.475Z,78.75
2023-03-01T09:47:30.490Z,84.38
2023-03-01T09:48:31.307Z,95.62
2023-03-01T09:49:32.144Z,84.38
2023-03-01T09:50:32.993Z,90.00
2023-03-01T09:51:33.821Z,78.75
2023-03-01T09:52:34.651Z,73.12
2023-03-01T09:53:35.497Z,73.12
2023-03-01T09:54:36.323Z,90.00
2023-03-01T09:55:37.146Z,95.62
2023-03-01T09:56:37.983Z,90.00
2023-03-01T09:57:38.814Z,90.00
2023-03-01T09:58:39.646Z,90.00
2023-03-01T09:59:40.472Z,90.00
2023-03-01T10:00:41.319Z,90.00
2023-03-01T10:01:42.153Z,90.00
2023-03-01T10:02:43.005Z,90.00
2023-03-01T10:03:43.849Z,84.38
2023-03-01T10:04:44.699Z,90.00
2023-03-01T10:05:45.527Z,84.38
2023-03-01T10:06:46.351Z,84.38
2023-03-01T10:07:47.182Z,84.38
2023-03-01T10:08:48.025Z,90.00
2023-03-01T10:09:48.855Z,90.00
2023-03-01T10:10:49.685Z,90.00
2023-03-01T10:11:50.513Z,90.00
2023-03-01T10:12:51.346Z,90.00
2023-03-01T10:13:52.186Z,90.00
2023-03-01T10:14:53.017Z,90.00
2023-03-01T10:15:54.012Z,90.00
2023-03-01T10:16:54.794Z,90.00
2023-03-01T10:17:55.644Z,90.00
2023-03-01T10:18:56.462Z,90.00
2023-03-01T10:19:57.276Z,90.00
2023-03-01T10:20:58.114Z,90.00
2023-03-01T10:21:58.927Z,90.00
2023-03-01T10:22:59.776Z,90.00
2023-03-01T10:24:00.621Z,90.00
2023-03-01T10:25:01.451Z,90.00
2023-03-01T10:26:02.284Z,90.00
2023-03-01T10:27:03.121Z,90.00
2023-03-01T10:28:03.943Z,90.00
2023-03-01T10:29:04.777Z,90.00
2023-03-01T10:30:05.600Z,90.00
2023-03-01T10:31:07.450Z,90.00
2023-03-01T10:32:07.320Z,90.00
2023-03-01T10:33:08.222Z,90.00
2023-03-01T10:34:09.054Z,95.62
2023-03-01T10:35:09.880Z,95.62
2023-03-01T10:36:10.769Z,95.62
2023-03-01T10:37:11.619Z,95.62
2023-03-01T10:38:12.402Z,95.62
2023-03-01T10:39:13.244Z,101.25
2023-03-01T10:40:14.067Z,95.62
2023-03-01T10:41:14.671Z,101.25
2023-03-01T10:42:15.519Z,101.25
2023-03-01T10:43:16.342Z,101.25
2023-03-01T10:44:17.181Z,95.62
2023-03-01T10:45:18.010Z,95.62
2023-03-01T10:46:18.862Z,95.62
2023-03-01T10:47:19.664Z,95.62
2023-03-01T10:48:20.629Z,95.62
2023-03-01T10:49:21.418Z,95.62
2023-03-01T10:50:22.271Z,95.62
2023-03-01T10:51:23.087Z,95.62
2023-03-01T10:52:23.899Z,101.25
2023-03-01T10:53:24.753Z,101.25
2023-03-01T10:54:25.560Z,101.25
2023-03-01T10:55:26.396Z,101.25
2023-03-01T10:56:27.224Z,101.25
2023-03-01T10:57:28.052Z,101.25
2023-03-01T10:58:28.889Z,101.25
2023-03-01T10:59:29.729Z,101.25
2023-03-01T11:00:30.553Z,101.25
2023-03-01T11:01:31.822Z,101.25
2023-03-01T11:02:32.416Z,101.25
2023-03-01T11:03:33.346Z,101.25
2023-03-01T11:04:34.128Z,101.25
2023-03-01T11:05:34.951Z,101.25
2023-03-01T11:06:35.791Z,84.38
2023-03-01T11:07:36.620Z,78.75
2023-03-01T11:08:37.478Z,73.12
2023-03-01T11:09:38.292Z,78.75
2023-03-01T11:10:39.124Z,101.25
2023-03-01T11:11:39.953Z,106.88
2023-03-01T11:12:40.774Z,106.88
2023-03-01T11:13:41.618Z,101.25
2023-03-01T11:14:42.464Z,101.25
2023-03-01T11:15:43.355Z,101.25
2023-03-01T11:16:44.151Z,106.88
2023-03-01T11:17:54.583Z,106.88
2023-03-01T11:18:48.495Z,106.88
2023-03-01T11:19:57.493Z,106.88
2023-03-01T11:20:48.063Z,106.88
2023-03-01T11:21:47.894Z,101.25
2023-03-01T11:22:48.725Z,106.88
2023-03-01T11:23:49.560Z,106.88
2023-03-01T11:25:00.121Z,106.88
2023-03-01T11:25:52.148Z,106.88
2023-03-01T11:26:51.938Z,106.88
2023-03-01T11:27:52.769Z,106.88
2023-03-01T11:28:53.595Z,106.88
2023-03-01T11:29:54.454Z,106.88
2023-03-01T11:31:07.342Z,106.88
2023-03-01T11:31:58.067Z,101.25
2023-03-01T11:32:57.101Z,106.88
2023-03-01T11:33:57.521Z,106.88
2023-03-01T11:34:58.357Z,106.88
2023-03-01T11:35:59.183Z,106.88
2023-03-01T11:36:59.982Z,106.88
2023-03-01T11:38:00.818Z,112.50
2023-03-01T11:39:01.631Z,112.50
2023-03-01T11:40:02.481Z,106.88
2023-03-01T11:41:03.304Z,106.88
2023-03-01T11:42:18.073Z,106.88
2023-03-01T11:43:05.867Z,106.88
2023-03-01T11:44:05.819Z,106.88
2023-03-01T11:45:06.659Z,106.88
2023-03-01T11:46:07.495Z,106.88
2023-03-01T11:47:08.551Z,106.88
2023-03-01T11:48:08.885Z,106.88
2023-03-01T11:49:09.763Z,112.50
2023-03-01T11:50:10.536Z,112.50
2023-03-01T11:51:11.361Z,112.50
2023-03-01T11:52:12.202Z,112.50
2023-03-01T11:53:13.012Z,112.50
2023-03-01T11:54:13.855Z,106.88
2023-03-01T11:55:14.678Z,106.88
2023-03-01T11:56:15.514Z,106.88
2023-03-01T11:57:16.340Z,106.88
2023-03-01T11:58:17.160Z,106.88
2023-03-01T11:59:17.994Z,106.88
2023-03-01T12:00:18.830Z,106.88
2023-03-01T12:01:19.668Z,101.25
2023-03-01T12:02:20.519Z,106.88
2023-03-01T12:03:21.347Z,106.88
2023-03-01T12:04:22.219Z,106.88
2023-03-01T12:05:23.008Z,106.88
2023-03-01T12:06:23.840Z,106.88
2023-03-01T12:07:24.668Z,106.88
2023-03-01T12:08:25.499Z,106.88
2023-03-01T12:09:26.339Z,106.88
2023-03-01T12:10:27.177Z,106.88
2023-03-01T12:11:27.998Z,106.88
2023-03-01T12:12:28.822Z,106.88
2023-03-01T12:13:29.667Z,101.25
2023-03-01T12:14:30.492Z,101.25
2023-03-01T12:15:31.339Z,101.25
2023-03-01T12:16:38.813Z,101.25
2023-03-01T12:17:33.880Z,101.25
2023-03-01T12:18:33.711Z,106.88
2023-03-01T12:19:34.557Z,101.25
2023-03-01T12:20:35.414Z,101.25
2023-03-01T12:21:36.215Z,101.25
2023-03-01T12:22:37.040Z,101.25
2023-03-01T12:23:37.902Z,101.25
2023-03-01T12:24:38.699Z,106.88
2023-03-01T12:25:39.541Z,106.88
2023-03-01T12:26:40.364Z,95.62
2023-03-01T12:27:41.196Z,101.25
2023-03-01T12:28:42.028Z,106.88
2023-03-01T12:29:42.865Z,95.62
2023-03-01T12:30:43.711Z,106.88
2023-03-01T12:31:44.584Z,106.88
2023-03-01T12:32:45.616Z,106.88
2023-03-01T12:33:46.448Z,106.88
2023-03-01T12:34:47.293Z,106.88
2023-03-01T12:35:48.163Z,101.25
2023-03-01T12:36:48.968Z,84.38
2023-03-01T12:37:49.796Z,84.38
2023-03-01T12:38:50.630Z,95.62
2023-03-01T12:39:51.455Z,95.62
2023-03-01T12:40:52.298Z,101.25
2023-03-01T12:41:53.126Z,106.88
2023-03-01T12:42:53.966Z,101.25
2023-03-01T12:43:54.792Z,101.25
2023-03-01T12:44:55.618Z,101.25
2023-03-01T12:45:56.584Z,101.25
2023-03-01T12:46:57.065Z,101.25
2023-03-01T12:47:57.892Z,101.25
2023-03-01T12:48:58.740Z,101.25
2023-03-01T12:49:59.599Z,101.25
2023-03-01T12:51:00.415Z,101.25
2023-03-01T12:52:01.270Z,101.25
2023-03-01T12:53:02.098Z,101.25
2023-03-01T12:54:03.050Z,101.25
2023-03-01T12:55:03.845Z,101.25
2023-03-01T12:56:04.688Z,101.25
2023-03-01T12:57:05.516Z,101.25
2023-03-01T12:58:06.346Z,95.62
2023-03-01T12:59:07.176Z,95.62
2023-03-01T13:00:08.009Z,95.62
2023-03-01T13:01:08.890Z,95.62
2023-03-01T13:02:09.758Z,95.62
2023-03-01T13:03:10.586Z,95.62
2023-03-01T13:04:11.443Z,95.62
2023-03-01T13:05:12.279Z,95.62
2023-03-01T13:06:13.108Z,90.00
2023-03-01T13:07:13.945Z,90.00
2023-03-01T13:08:14.771Z,95.62
2023-03-01T13:09:15.602Z,95.62
2023-03-01T13:10:16.445Z,95.62
2023-03-01T13:11:17.271Z,95.62
2023-03-01T13:12:20.469Z,90.00
2023-03-01T13:13:18.856Z,90.00